Time;durP1;ratioP1;P1;durP2;ratioP2;P2;SDS_P1;SDS_P2;PMS_P1;PMS_P2;Temp;Humidity;BMP_temperature;BMP_pressure;BME280_temperature;BME280_humidity;BME280_pressure;Samples;Min_cycle;Max_cycle;Signal;HPM_P1;HPM_P2
2023/12/11 00:01:10;;;;;;;21.63;3.60;;;11.20;99.90;;;;;;5091619;28;20024;-65
2023/12/11 00:03:35;;;;;;;20.80;3.58;;;11.20;99.90;;;;;;5091684;28;20060;-65
2023/12/11 00:06:01;;;;;;;17.50;3.58;;;11.20;99.90;;;;;;5092941;28;20037;-63
2023/12/11 00:08:26;;;;;;;22.88;3.58;;;11.20;99.90;;;;;;5095266;28;20032;-65
2023/12/11 00:10:52;;;;;;;18.83;2.88;;;11.20;99.90;;;;;;5095245;28;20032;-66
2023/12/11 00:13:18;;;;;;;14.40;2.83;;;11.10;99.90;;;;;;5095217;28;20040;-65
2023/12/11 00:15:43;;;;;;;22.77;3.60;;;11.10;99.90;;;;;;5095184;28;20092;-65
2023/12/11 00:18:09;;;;;;;22.40;3.50;;;11.10;99.90;;;;;;5095161;28;20025;-65
2023/12/11 00:20:34;;;;;;;21.30;3.28;;;11.10;99.90;;;;;;5095078;28;20029;-65
2023/12/11 00:23:00;;;;;;;12.73;2.88;;;11.10;99.90;;;;;;5095053;28;20021;-66
2023/12/11 00:25:29;;;;;;;21.63;3.35;;;11.00;99.90;;;;;;5095049;28;20033;-66
2023/12/11 00:27:54;;;;;;;17.80;3.78;;;11.00;99.90;;;;;;5095072;28;20284;-65
2023/12/11 00:30:20;;;;;;;19.23;3.63;;;10.90;99.90;;;;;;5094776;28;20023;-66
2023/12/11 00:32:46;;;;;;;25.35;4.38;;;10.90;99.90;;;;;;5094860;28;20116;-65
2023/12/11 00:35:11;;;;;;;23.58;4.05;;;10.90;99.90;;;;;;5094884;28;20028;-65
2023/12/11 00:37:37;;;;;;;24.30;3.33;;;10.90;99.90;;;;;;5094770;28;20033;-67
2023/12/11 00:40:03;;;;;;;19.38;3.00;;;10.90;99.90;;;;;;5094660;28;20048;-64
2023/12/11 00:42:29;;;;;;;20.35;2.88;;;10.90;99.90;;;;;;5094784;28;20032;-66
2023/12/11 00:44:54;;;;;;;13.73;2.47;;;10.80;99.90;;;;;;5094804;28;20035;-66
2023/12/11 00:47:20;;;;;;;17.45;2.88;;;10.80;99.90;;;;;;5094708;28;20021;-67
2023/12/11 00:49:47;;;;;;;22.02;3.17;;;10.80;99.90;;;;;;5094634;28;20032;-65
2023/12/11 00:52:12;;;;;;;24.77;3.70;;;10.80;99.90;;;;;;5094486;28;20025;-64
2023/12/11 00:54:38;;;;;;;23.92;3.33;;;10.80;99.90;;;;;;5093497;28;20099;-65
2023/12/11 00:57:04;;;;;;;15.60;2.92;;;10.70;99.90;;;;;;5094556;28;20060;-65
2023/12/11 00:59:29;;;;;;;20.48;2.95;;;10.70;99.90;;;;;;5094258;28;20020;-65
2023/12/11 01:01:55;;;;;;;18.13;3.20;;;10.70;99.90;;;;;;5094383;28;20391;-65
2023/12/11 01:04:21;;;;;;;24.92;3.33;;;10.70;99.90;;;;;;5094255;28;20051;-66
2023/12/11 01:06:46;;;;;;;23.42;3.95;;;10.70;99.90;;;;;;5094134;28;20068;-64
2023/12/11 01:09:12;;;;;;;18.40;2.95;;;10.70;99.90;;;;;;5094163;28;20084;-64
2023/12/11 01:11:39;;;;;;;16.58;2.50;;;10.70;99.90;;;;;;5094127;28;20016;-63
2023/12/11 01:14:04;;;;;;;20.98;3.00;;;10.70;99.90;;;;;;5094209;28;20028;-65
2023/12/11 01:16:30;;;;;;;24.05;3.70;;;10.70;99.90;;;;;;5093244;28;20084;-66
2023/12/11 01:18:55;;;;;;;20.33;2.95;;;10.70;99.90;;;;;;5094064;28;20080;-63
2023/12/11 01:21:21;;;;;;;26.60;3.60;;;10.70;99.90;;;;;;5093810;28;20064;-64
2023/12/11 01:23:47;;;;;;;18.17;3.78;;;10.70;99.90;;;;;;5093914;28;20100;-64
2023/12/11 01:26:12;;;;;;;15.75;3.35;;;10.70;99.90;;;;;;5093889;28;20056;-64
2023/12/11 01:28:38;;;;;;;19.67;3.40;;;10.70;99.90;;;;;;5093877;28;20035;-63
2023/12/11 01:31:04;;;;;;;26.45;3.38;;;10.70;99.90;;;;;;5092438;28;20032;-64
2023/12/11 01:33:29;;;;;;;17.35;3.13;;;10.70;99.90;;;;;;5093735;28;20025;-64
2023/12/11 01:35:55;;;;;;;23.27;3.70;;;10.70;99.90;;;;;;5093645;28;20046;-64
2023/12/11 01:38:21;;;;;;;19.38;3.40;;;10.80;99.90;;;;;;5093590;28;20028;-64
2023/12/11 01:40:46;;;;;;;32.05;3.92;;;10.80;99.90;;;;;;5093368;28;20106;-64
2023/12/11 01:43:14;;;;;;;18.67;2.72;;;10.80;99.90;;;;;;5093519;28;20028;-63
2023/12/11 01:45:40;;;;;;;19.00;3.35;;;10.80;99.90;;;;;;5093647;28;20446;-64
2023/12/11 01:48:07;;;;;;;19.33;3.47;;;10.80;99.90;;;;;;5093521;28;20025;-64
2023/12/11 01:50:33;;;;;;;20.30;3.50;;;10.90;99.90;;;;;;5093252;28;20024;-65
2023/12/11 01:52:59;;;;;;;16.77;2.63;;;10.90;99.90;;;;;;5093367;28;20055;-65
2023/12/11 01:55:25;;;;;;;22.60;3.92;;;10.90;99.90;;;;;;5093365;28;20017;-64
2023/12/11 01:57:52;;;;;;;24.33;3.40;;;11.00;99.90;;;;;;5093233;28;20070;-64
2023/12/11 02:00:19;;;;;;;15.63;2.92;;;11.00;99.90;;;;;;5093059;28;20024;-65
2023/12/11 02:02:45;;;;;;;19.48;3.67;;;11.00;99.90;;;;;;5093148;28;20039;-65
2023/12/11 02:05:11;;;;;;;22.05;3.00;;;11.10;99.90;;;;;;5092996;28;20037;-64
2023/12/11 02:07:38;;;;;;;22.75;2.78;;;11.10;99.90;;;;;;5093184;28;20031;-64
2023/12/11 02:10:05;;;;;;;17.23;2.42;;;11.20;99.90;;;;;;5093031;28;20028;-63
2023/12/11 02:12:31;;;;;;;21.38;4.00;;;11.20;99.90;;;;;;5092906;28;20020;-65
2023/12/11 02:14:57;;;;;;;16.58;3.38;;;11.20;99.90;;;;;;5093065;28;20028;-65
2023/12/11 02:17:22;;;;;;;21.73;3.33;;;11.20;99.90;;;;;;5092876;28;20033;-64
2023/12/11 02:19:48;;;;;;;23.20;2.83;;;11.20;99.90;;;;;;5091827;28;20044;-65
2023/12/11 02:22:15;;;;;;;21.13;2.92;;;11.30;99.90;;;;;;5092812;28;20041;-64
2023/12/11 02:24:49;;;;;;;18.38;2.85;;;11.30;99.90;;;;;;5092821;28;20043;-64
2023/12/11 02:27:15;;;;;;;13.38;2.75;;;11.30;99.90;;;;;;5092761;28;20031;-64
2023/12/11 02:29:41;;;;;;;27.02;3.67;;;11.30;99.90;;;;;;5092448;28;20024;-65
2023/12/11 02:32:06;;;;;;;19.35;3.63;;;11.30;99.90;;;;;;5092657;28;20128;-64
2023/12/11 02:34:32;;;;;;;20.02;2.75;;;11.30;99.90;;;;;;5092493;28;20059;-65
2023/12/11 02:36:58;;;;;;;24.27;3.50;;;11.30;99.90;;;;;;5092698;28;20021;-64
2023/12/11 02:39:23;;;;;;;20.73;2.90;;;11.30;99.90;;;;;;5092567;28;20021;-66
2023/12/11 02:41:49;;;;;;;22.75;2.65;;;11.30;99.90;;;;;;5092295;28;20411;-64
2023/12/11 02:44:15;;;;;;;20.33;5.60;;;11.30;99.90;;;;;;5092426;28;20037;-66
2023/12/11 02:46:40;;;;;;;24.02;3.15;;;11.30;99.90;;;;;;5092381;28;20025;-64
2023/12/11 02:49:06;;;;;;;14.00;2.13;;;11.30;99.90;;;;;;5092468;28;20046;-64
2023/12/11 02:51:32;;;;;;;12.93;2.42;;;11.30;99.90;;;;;;5092334;28;20032;-66
2023/12/11 02:53:57;;;;;;;19.45;2.88;;;11.40;99.90;;;;;;5092462;28;20029;-64
2023/12/11 02:56:23;;;;;;;17.08;3.08;;;11.40;99.90;;;;;;5092438;28;20048;-63
2023/12/11 02:58:48;;;;;;;15.27;2.80;;;11.40;99.90;;;;;;5092437;28;20044;-64
2023/12/11 03:01:15;;;;;;;19.50;3.03;;;11.40;99.90;;;;;;5092133;28;20036;-64
2023/12/11 03:03:41;;;;;;;18.15;2.47;;;11.40;99.90;;;;;;5092280;28;20048;-66
2023/12/11 03:06:08;;;;;;;16.33;3.03;;;11.40;99.90;;;;;;5091193;28;20074;-64
2023/12/11 03:08:36;;;;;;;23.52;3.28;;;11.50;99.90;;;;;;5092316;28;20028;-64
2023/12/11 03:11:02;;;;;;;23.02;3.53;;;11.40;99.90;;;;;;5092228;28;20039;-64
2023/12/11 03:13:27;;;;;;;16.13;2.38;;;11.50;99.90;;;;;;5092206;28;20021;-64
2023/12/11 03:15:53;;;;;;;16.05;2.25;;;11.50;99.90;;;;;;5092232;28;20080;-64
2023/12/11 03:18:19;;;;;;;14.23;2.50;;;11.40;99.90;;;;;;5092240;28;20093;-63
2023/12/11 03:20:44;;;;;;;16.73;2.58;;;11.40;99.90;;;;;;5092143;28;20084;-63
2023/12/11 03:23:10;;;;;;;26.58;2.95;;;11.40;99.90;;;;;;5092116;28;20028;-65
2023/12/11 03:25:36;;;;;;;16.63;2.55;;;11.40;99.90;;;;;;5092138;28;20013;-65
2023/12/11 03:28:02;;;;;;;23.88;2.88;;;11.40;99.90;;;;;;5091982;28;20040;-65
2023/12/11 03:30:27;;;;;;;22.27;2.65;;;11.30;99.90;;;;;;5091753;28;20070;-66
2023/12/11 03:32:53;;;;;;;17.08;2.67;;;11.30;99.90;;;;;;5091870;28;20123;-64
2023/12/11 03:35:18;;;;;;;19.27;3.33;;;11.30;99.90;;;;;;5091968;28;20025;-65
2023/12/11 03:37:44;;;;;;;18.70;2.40;;;11.20;99.90;;;;;;5092004;28;20471;-65
2023/12/11 03:40:10;;;;;;;12.88;3.03;;;11.20;99.90;;;;;;5093033;28;20048;-65
2023/12/11 03:42:36;;;;;;;14.98;2.35;;;11.20;99.90;;;;;;5095869;28;20052;-64
2023/12/11 03:45:02;;;;;;;21.45;2.63;;;11.20;99.90;;;;;;5095716;28;20033;-65
2023/12/11 03:47:27;;;;;;;15.32;2.03;;;11.20;99.90;;;;;;5094873;28;20032;-63
2023/12/11 03:49:54;;;;;;;20.80;2.33;;;11.20;99.90;;;;;;5095699;28;20037;-65
2023/12/11 03:52:20;;;;;;;17.65;2.75;;;11.20;99.90;;;;;;5095596;28;20040;-64
2023/12/11 03:54:46;;;;;;;15.73;3.08;;;11.20;99.90;;;;;;5095605;28;20047;-64
2023/12/11 03:57:12;;;;;;;19.02;3.40;;;11.20;99.90;;;;;;5095593;28;20025;-64
2023/12/11 03:59:37;;;;;;;19.15;2.45;;;11.20;99.90;;;;;;5095258;28;20033;-64
2023/12/11 04:02:04;;;;;;;12.85;2.13;;;11.30;99.90;;;;;;5095429;28;20054;-64
2023/12/11 04:04:30;;;;;;;10.60;2.85;;;11.20;99.90;;;;;;5095352;28;20021;-63
2023/12/11 04:06:56;;;;;;;12.68;2.42;;;11.30;99.90;;;;;;5095432;28;20032;-66
2023/12/11 04:09:21;;;;;;;9.75;2.60;;;11.20;99.90;;;;;;5095361;28;20025;-62
2023/12/11 04:11:47;;;;;;;18.55;2.08;;;11.20;99.90;;;;;;5095217;28;20044;-65
2023/12/11 04:14:13;;;;;;;16.83;2.45;;;11.20;99.90;;;;;;5095187;28;20031;-64
2023/12/11 04:16:42;;;;;;;16.50;2.35;;;11.20;99.90;;;;;;5094187;28;20108;-65
2023/12/11 04:19:08;;;;;;;9.93;2.10;;;11.20;99.90;;;;;;5095192;28;20051;-64
2023/12/11 04:21:33;;;;;;;15.52;2.45;;;11.20;99.90;;;;;;5095055;28;20021;-64
2023/12/11 04:23:59;;;;;;;13.73;2.63;;;11.20;99.90;;;;;;5095198;28;20363;-65
2023/12/11 04:26:24;;;;;;;13.07;2.05;;;11.20;99.90;;;;;;5094995;28;20028;-64
2023/12/11 04:28:50;;;;;;;15.95;2.83;;;11.20;99.90;;;;;;5094984;28;20210;-64
2023/12/11 04:31:16;;;;;;;14.00;2.70;;;11.20;99.90;;;;;;5094713;28;20048;-65
2023/12/11 04:33:41;;;;;;;12.73;2.00;;;11.20;99.90;;;;;;5094931;28;20075;-64
2023/12/11 04:36:10;;;;;;;13.85;2.65;;;11.20;99.90;;;;;;5093860;28;20081;-64
2023/12/11 04:38:36;;;;;;;15.80;2.33;;;11.20;99.90;;;;;;5094770;28;20059;-66
2023/12/11 04:41:02;;;;;;;18.27;2.67;;;11.20;99.90;;;;;;5094479;28;20048;-65
2023/12/11 04:43:28;;;;;;;16.15;3.03;;;11.20;99.90;;;;;;5094641;28;20040;-64
2023/12/11 04:45:53;;;;;;;13.65;2.05;;;11.20;99.90;;;;;;5094783;28;20025;-64
2023/12/11 04:48:19;;;;;;;13.85;2.30;;;11.20;99.90;;;;;;5094617;28;20036;-64
2023/12/11 04:50:45;;;;;;;10.60;2.17;;;11.10;99.90;;;;;;5094175;28;20029;-63
2023/12/11 04:53:10;;;;;;;10.50;2.42;;;11.10;99.90;;;;;;5093610;28;20029;-64
2023/12/11 04:55:36;;;;;;;14.60;2.17;;;11.20;99.90;;;;;;5094564;28;20021;-64
2023/12/11 04:58:02;;;;;;;19.35;3.00;;;11.20;99.90;;;;;;5094357;28;20033;-66
2023/12/11 05:00:27;;;;;;;17.13;2.42;;;11.30;99.90;;;;;;5094268;28;20024;-65
2023/12/11 05:02:53;;;;;;;11.23;2.10;;;11.30;99.90;;;;;;5094358;28;20028;-64
2023/12/11 05:05:18;;;;;;;18.02;2.47;;;11.20;99.90;;;;;;5094359;28;20059;-64
2023/12/11 05:07:44;;;;;;;22.88;3.33;;;11.20;99.90;;;;;;5094325;28;20047;-64
2023/12/11 05:10:10;;;;;;;17.73;2.40;;;11.20;99.90;;;;;;5094193;28;20032;-65
2023/12/11 05:12:35;;;;;;;21.40;3.83;;;11.20;99.90;;;;;;5093988;28;20035;-64
2023/12/11 05:15:01;;;;;;;18.98;2.53;;;11.20;99.90;;;;;;5094167;28;20084;-65
2023/12/11 05:17:27;;;;;;;9.90;2.40;;;11.10;99.90;;;;;;5094133;28;20041;-64
2023/12/11 05:19:54;;;;;;;9.55;1.77;;;11.10;99.90;;;;;;5093920;28;20025;-64
2023/12/11 05:22:19;;;;;;;15.20;2.50;;;11.00;99.90;;;;;;5093985;28;20120;-66
2023/12/11 05:24:45;;;;;;;22.55;3.10;;;11.00;99.90;;;;;;5092843;28;20040;-64
2023/12/11 05:27:11;;;;;;;17.45;2.58;;;11.00;99.90;;;;;;5093792;28;20032;-64
2023/12/11 05:29:37;;;;;;;17.58;2.38;;;11.00;99.90;;;;;;5093663;28;20024;-63
2023/12/11 05:32:03;;;;;;;11.07;2.33;;;11.00;99.90;;;;;;5093685;28;20032;-64
2023/12/11 05:34:29;;;;;;;10.85;2.10;;;11.00;99.90;;;;;;5093671;28;20028;-65
2023/12/11 05:36:54;;;;;;;9.93;1.85;;;11.00;99.90;;;;;;5093719;28;20055;-65
2023/12/11 05:39:20;;;;;;;20.73;2.50;;;11.00;99.90;;;;;;5093621;28;20025;-64
2023/12/11 05:41:46;;;;;;;19.67;2.72;;;11.00;99.90;;;;;;5093502;28;20084;-63
2023/12/11 05:44:11;;;;;;;17.77;3.17;;;11.00;99.90;;;;;;5093520;28;20052;-64
2023/12/11 05:46:37;;;;;;;15.70;2.92;;;11.00;99.90;;;;;;5093515;28;20051;-65
2023/12/11 05:49:03;;;;;;;18.58;3.35;;;11.10;99.90;;;;;;5093473;28;20040;-65
2023/12/11 05:51:28;;;;;;;17.52;3.08;;;11.10;99.90;;;;;;5093353;28;20032;-63
2023/12/11 05:53:57;;;;;;;12.95;2.45;;;11.00;99.90;;;;;;5093388;28;20036;-65
2023/12/11 05:56:22;;;;;;;16.70;2.30;;;11.10;99.90;;;;;;5093281;28;20024;-64
2023/12/11 05:58:49;;;;;;;16.77;2.95;;;11.10;99.90;;;;;;5093254;28;20076;-65
2023/12/11 06:01:15;;;;;;;10.93;2.10;;;11.10;99.90;;;;;;5092951;28;20411;-65
2023/12/11 06:03:41;;;;;;;14.48;2.75;;;11.10;99.90;;;;;;5092756;28;20020;-65
2023/12/11 06:06:14;;;;;;;13.73;2.58;;;11.00;99.90;;;;;;5093076;28;20039;-65
2023/12/11 06:08:40;;;;;;;15.55;2.20;;;11.00;99.90;;;;;;5092913;28;20031;-64
2023/12/11 06:11:06;;;;;;;16.30;2.05;;;11.00;99.90;;;;;;5092998;28;20052;-65
2023/12/11 06:13:31;;;;;;;14.27;2.40;;;10.90;99.90;;;;;;5092948;28;20070;-65
2023/12/11 06:15:57;;;;;;;13.30;1.63;;;10.90;99.90;;;;;;5092908;28;20048;-66
2023/12/11 06:18:22;;;;;;;22.85;2.97;;;10.90;99.90;;;;;;5092815;28;20028;-64
2023/12/11 06:20:48;;;;;;;17.15;2.40;;;10.90;99.90;;;;;;5092773;28;20048;-65
2023/12/11 06:23:14;;;;;;;18.08;3.08;;;10.90;99.90;;;;;;5092676;28;20020;-65
2023/12/11 06:25:39;;;;;;;15.07;3.15;;;10.90;99.90;;;;;;5092837;28;20036;-65
2023/12/11 06:28:05;;;;;;;15.88;2.60;;;11.00;99.90;;;;;;5091857;28;20013;-65
2023/12/11 06:30:30;;;;;;;24.27;2.60;;;11.00;99.90;;;;;;5092486;28;20029;-64
2023/12/11 06:32:56;;;;;;;10.95;2.35;;;11.00;99.90;;;;;;5092489;28;20039;-66
2023/12/11 06:35:22;;;;;;;22.60;2.85;;;11.00;99.90;;;;;;5092585;28;20028;-65
2023/12/11 06:37:47;;;;;;;13.38;1.92;;;11.00;99.90;;;;;;5092537;28;20032;-64
2023/12/11 06:40:13;;;;;;;18.00;3.15;;;11.00;99.90;;;;;;5092495;28;20541;-65
2023/12/11 06:42:39;;;;;;;18.88;2.78;;;11.00;99.90;;;;;;5092547;28;20028;-64
2023/12/11 06:45:07;;;;;;;18.35;3.58;;;11.00;99.90;;;;;;5092614;28;20028;-64
2023/12/11 06:47:33;;;;;;;13.35;2.65;;;11.00;99.90;;;;;;5092613;28;20076;-65
2023/12/11 06:49:58;;;;;;;17.20;2.38;;;10.90;99.90;;;;;;5092395;28;20078;-66
2023/12/11 06:52:25;;;;;;;13.85;2.67;;;10.90;99.90;;;;;;5092323;28;20042;-65
2023/12/11 06:54:50;;;;;;;17.00;2.97;;;10.90;99.90;;;;;;5092407;28;20028;-65
2023/12/11 06:57:16;;;;;;;14.23;2.33;;;10.90;99.90;;;;;;5092337;28;20029;-65
2023/12/11 06:59:42;;;;;;;15.55;2.33;;;10.90;99.90;;;;;;5092159;28;20020;-65
2023/12/11 07:02:07;;;;;;;17.48;2.63;;;10.80;99.90;;;;;;5092332;28;20206;-64
2023/12/11 07:04:33;;;;;;;18.15;2.67;;;10.70;99.90;;;;;;5092237;28;20055;-65
2023/12/11 07:06:59;;;;;;;14.82;3.13;;;10.80;99.90;;;;;;5092214;28;20039;-66
2023/12/11 07:09:26;;;;;;;11.10;2.50;;;10.70;99.90;;;;;;5092154;28;20028;-64
2023/12/11 07:11:51;;;;;;;10.68;2.08;;;10.60;99.90;;;;;;5092190;28;20024;-64
2023/12/11 07:14:18;;;;;;;20.85;3.33;;;10.50;99.90;;;;;;5092233;28;20464;-64
2023/12/11 07:16:43;;;;;;;11.90;2.35;;;10.50;99.90;;;;;;5096198;28;20017;-64
2023/12/11 07:19:09;;;;;;;14.63;2.95;;;10.50;99.90;;;;;;5096362;28;20040;-65
2023/12/11 07:21:35;;;;;;;15.38;2.67;;;10.50;99.90;;;;;;5096162;28;20059;-65
2023/12/11 07:24:02;;;;;;;18.17;2.95;;;10.50;99.90;;;;;;5096260;28;20040;-64
2023/12/11 07:26:28;;;;;;;10.35;2.00;;;10.50;99.90;;;;;;5096271;28;20024;-64
2023/12/11 07:28:54;;;;;;;11.93;2.75;;;10.50;99.90;;;;;;5096137;28;20031;-63
2023/12/11 07:31:20;;;;;;;16.38;2.75;;;10.50;99.90;;;;;;5095955;28;20043;-65
2023/12/11 07:33:46;;;;;;;17.08;2.47;;;10.50;99.90;;;;;;5096114;28;20070;-63
2023/12/11 07:36:12;;;;;;;12.98;1.77;;;10.50;99.90;;;;;;5096030;28;20048;-64
2023/12/11 07:38:37;;;;;;;17.23;2.03;;;10.50;99.90;;;;;;5095939;28;20021;-65
2023/12/11 07:41:03;;;;;;;14.82;2.50;;;10.50;99.90;;;;;;5095806;28;20131;-63
2023/12/11 07:43:29;;;;;;;9.77;1.83;;;10.50;99.90;;;;;;5095887;28;20115;-63
2023/12/11 07:45:54;;;;;;;8.95;1.77;;;10.60;99.90;;;;;;5095791;28;20031;-65
2023/12/11 07:48:20;;;;;;;14.15;2.15;;;10.60;99.90;;;;;;5095699;28;20027;-64
2023/12/11 07:50:46;;;;;;;18.83;2.55;;;10.60;99.90;;;;;;5095526;28;20036;-64
2023/12/11 07:53:11;;;;;;;9.55;1.95;;;10.70;99.90;;;;;;5095591;28;20029;-66
2023/12/11 07:55:37;;;;;;;12.05;1.75;;;10.60;99.90;;;;;;5094779;28;20079;-66
2023/12/11 07:58:03;;;;;;;7.82;1.90;;;10.70;99.90;;;;;;5095551;28;20020;-64
2023/12/11 08:00:29;;;;;;;13.75;2.25;;;10.70;99.90;;;;;;5095441;28;20036;-64
2023/12/11 08:02:54;;;;;;;11.52;1.88;;;10.70;99.90;;;;;;5095414;28;20043;-65
2023/12/11 08:05:20;;;;;;;12.73;1.48;;;10.70;99.90;;;;;;5095257;28;20036;-64
2023/12/11 08:07:46;;;;;;;9.95;1.65;;;10.70;99.90;;;;;;5095373;28;20036;-64
2023/12/11 08:10:11;;;;;;;13.68;2.17;;;10.70;99.90;;;;;;5095434;28;20053;-65
2023/12/11 08:12:37;;;;;;;18.23;2.25;;;10.60;99.90;;;;;;5095283;28;20024;-66
2023/12/11 08:15:03;;;;;;;19.65;1.80;;;10.60;99.90;;;;;;5095367;28;20056;-64
2023/12/11 08:17:29;;;;;;;13.57;2.58;;;10.60;99.90;;;;;;5095242;28;20028;-64
2023/12/11 08:19:55;;;;;;;12.45;1.92;;;10.60;99.90;;;;;;5095096;28;20036;-64
2023/12/11 08:22:20;;;;;;;11.63;2.20;;;10.50;99.90;;;;;;5095270;28;20023;-64
2023/12/11 08:24:47;;;;;;;10.00;1.63;;;10.50;99.90;;;;;;5095105;28;20039;-65
2023/12/11 08:27:13;;;;;;;13.10;2.28;;;10.30;99.90;;;;;;5094806;28;20060;-64
2023/12/11 08:29:38;;;;;;;12.48;2.25;;;10.30;99.90;;;;;;5094833;28;20021;-67
2023/12/11 08:32:04;;;;;;;9.38;1.80;;;10.20;99.90;;;;;;5094942;28;20037;-63
2023/12/11 08:34:30;;;;;;;11.65;1.88;;;10.20;99.90;;;;;;5094723;28;20248;-64
2023/12/11 08:36:56;;;;;;;12.63;1.92;;;10.20;99.90;;;;;;5094856;28;20021;-64
2023/12/11 08:39:22;;;;;;;13.70;1.95;;;10.10;99.90;;;;;;5094799;28;20077;-63
2023/12/11 08:41:49;;;;;;;14.15;2.65;;;10.10;99.90;;;;;;5094576;28;20056;-64
2023/12/11 08:44:15;;;;;;;15.65;1.90;;;10.20;99.90;;;;;;5094827;28;20028;-64
2023/12/11 08:46:41;;;;;;;5.88;1.00;;;10.10;99.90;;;;;;5094781;28;20025;-63
2023/12/11 08:49:07;;;;;;;11.60;1.83;;;10.20;99.90;;;;;;5094640;28;20044;-64
2023/12/11 08:51:33;;;;;;;7.32;1.48;;;10.20;99.90;;;;;;5094567;28;20032;-64
2023/12/11 08:53:59;;;;;;;10.32;1.83;;;10.20;99.90;;;;;;5094612;28;20054;-64
2023/12/11 08:56:24;;;;;;;9.10;1.40;;;10.30;99.90;;;;;;5094545;28;20046;-66
2023/12/11 08:58:51;;;;;;;9.82;2.40;;;10.30;99.90;;;;;;5094578;28;20609;-65
2023/12/11 09:01:17;;;;;;;9.52;1.83;;;10.30;99.90;;;;;;5094292;28;20021;-64
2023/12/11 09:03:44;;;;;;;10.70;1.90;;;10.30;99.90;;;;;;5093371;28;20044;-65
2023/12/11 09:06:10;;;;;;;18.75;2.35;;;10.30;99.90;;;;;;5094411;28;20085;-65
2023/12/11 09:08:36;;;;;;;10.02;1.08;;;10.40;99.90;;;;;;5094358;28;20025;-65
2023/12/11 09:11:02;;;;;;;6.90;1.40;;;10.40;99.90;;;;;;5094238;28;21952;-65
2023/12/11 09:13:28;;;;;;;9.27;1.00;;;10.50;99.90;;;;;;5094270;28;20028;-65
2023/12/11 09:15:53;;;;;;;7.70;1.30;;;10.60;99.90;;;;;;5094180;28;20024;-64
2023/12/11 09:18:19;;;;;;;7.60;1.55;;;10.70;99.90;;;;;;5094124;28;20039;-65
2023/12/11 09:20:45;;;;;;;8.98;1.58;;;10.70;99.90;;;;;;5094017;28;20033;-65
2023/12/11 09:23:10;;;;;;;8.60;1.25;;;10.80;99.90;;;;;;5093969;28;20089;-64
2023/12/11 09:25:36;;;;;;;6.50;1.30;;;10.80;99.90;;;;;;5094071;28;20040;-67
2023/12/11 09:28:04;;;;;;;7.97;1.48;;;10.80;99.90;;;;;;5093905;28;20024;-64
2023/12/11 09:30:30;;;;;;;8.45;1.58;;;10.90;99.90;;;;;;5093715;28;20047;-64
2023/12/11 09:32:55;;;;;;;5.65;1.00;;;10.90;99.90;;;;;;5093662;28;20028;-64
2023/12/11 09:35:21;;;;;;;8.48;1.55;;;10.90;99.90;;;;;;5093770;28;20028;-65
2023/12/11 09:37:47;;;;;;;6.97;1.10;;;10.90;99.90;;;;;;5092101;28;20028;-64
2023/12/11 09:40:13;;;;;;;5.82;1.40;;;10.90;99.90;;;;;;5093245;28;20047;-64
2023/12/11 09:42:42;;;;;;;10.13;1.25;;;10.90;99.90;;;;;;5093132;28;20029;-65
2023/12/11 09:45:09;;;;;;;8.57;1.33;;;10.90;99.90;;;;;;5093391;28;20024;-65
2023/12/11 09:47:40;;;;;;;11.20;1.52;;;10.80;99.90;;;;;;5093071;28;20025;-66
2023/12/11 09:50:07;;;;;;;7.18;1.95;;;10.90;99.90;;;;;;5093225;28;20020;-64
2023/12/11 09:52:32;;;;;;;5.53;1.58;;;10.80;99.90;;;;;;5092914;28;20030;-64
2023/12/11 09:54:58;;;;;;;8.27;2.17;;;10.70;99.90;;;;;;5092895;28;20029;-65
2023/12/11 09:57:25;;;;;;;7.55;2.40;;;10.60;99.90;;;;;;5092953;28;20025;-64
2023/12/11 09:59:52;;;;;;;7.50;1.30;;;10.50;99.90;;;;;;5092803;28;20111;-66
2023/12/11 10:02:18;;;;;;;10.70;1.65;;;10.50;99.90;;;;;;5093068;28;20032;-65
2023/12/11 10:05:09;;;;;;;9.88;1.45;;;10.50;99.90;;;;;;5092623;28;20021;-64
2023/12/11 10:07:36;;;;;;;9.70;1.67;;;10.50;99.90;;;;;;5092732;28;20052;-64
2023/12/11 10:10:21;;;;;;;8.13;1.95;;;10.40;99.90;;;;;;5092843;28;20040;-64
2023/12/11 10:12:46;;;;;;;5.75;1.27;;;10.40;99.90;;;;;;5091292;28;20028;-66
2023/12/11 10:15:19;;;;;;;9.85;2.08;;;10.30;99.90;;;;;;5092826;28;20067;-64
2023/12/11 10:17:44;;;;;;;6.13;1.50;;;10.40;99.90;;;;;;5092815;28;20028;-61
2023/12/11 10:20:16;;;;;;;15.82;1.80;;;10.40;99.90;;;;;;5092588;28;20025;-64
2023/12/11 10:22:41;;;;;;;8.73;1.52;;;10.40;99.90;;;;;;5092461;28;20028;-64
2023/12/11 10:25:07;;;;;;;6.10;0.82;;;10.40;99.90;;;;;;5092318;28;20028;-65
2023/12/11 10:27:33;;;;;;;6.65;1.33;;;10.50;99.90;;;;;;5111899;28;20036;-65
2023/12/11 10:30:18;;;;;;;5.28;2.05;;;10.40;99.90;;;;;;5110916;28;20103;-65
2023/12/11 10:32:44;;;;;;;4.95;1.60;;;10.50;99.90;;;;;;5112135;28;20016;-64
2023/12/11 10:35:22;;;;;;;9.63;2.03;;;10.50;99.90;;;;;;5112318;28;20043;-63
2023/12/11 10:37:48;;;;;;;10.20;1.65;;;10.50;99.90;;;;;;5111385;28;20035;-64
2023/12/11 10:40:13;;;;;;;3.85;1.33;;;10.50;99.90;;;;;;5112517;28;20032;-64
2023/12/11 10:42:40;;;;;;;5.95;1.50;;;10.60;99.90;;;;;;5112430;28;20464;-64
2023/12/11 10:45:07;;;;;;;7.85;1.48;;;10.60;99.90;;;;;;5112628;28;20024;-65
2023/12/11 10:47:33;;;;;;;9.32;2.35;;;10.60;99.90;;;;;;5112471;28;20027;-63
2023/12/11 10:50:02;;;;;;;9.63;1.60;;;10.60;99.90;;;;;;5112356;28;20066;-66
2023/12/11 10:52:28;;;;;;;5.35;1.27;;;10.50;99.90;;;;;;5112222;28;20016;-64
2023/12/11 10:54:55;;;;;;;4.82;1.30;;;10.60;99.90;;;;;;5112306;28;20021;-64
2023/12/11 10:57:23;;;;;;;4.93;1.58;;;10.60;99.90;;;;;;5112464;28;20084;-64
2023/12/11 10:59:51;;;;;;;2.95;1.20;;;10.60;99.90;;;;;;5112194;28;20027;-64
2023/12/11 11:02:19;;;;;;;5.50;1.38;;;10.60;99.90;;;;;;5112275;28;20431;-64
2023/12/11 11:04:46;;;;;;;6.35;2.25;;;10.60;99.90;;;;;;5112056;28;20023;-66
2023/12/11 11:07:32;;;;;;;7.38;2.15;;;10.60;99.90;;;;;;5112210;28;20035;-64
2023/12/11 11:10:10;;;;;;;7.18;1.90;;;10.60;99.90;;;;;;5112441;28;20028;-64
2023/12/11 11:12:52;;;;;;;6.88;2.00;;;10.70;99.90;;;;;;5112271;28;20031;-65
2023/12/11 11:15:24;;;;;;;7.60;1.90;;;10.70;99.90;;;;;;5112281;28;20028;-63
2023/12/11 11:17:59;;;;;;;4.63;1.27;;;10.70;99.90;;;;;;5112248;28;20032;-63
2023/12/11 11:20:31;;;;;;;4.13;1.38;;;10.70;99.90;;;;;;5112016;28;20027;-63
2023/12/11 11:23:15;;;;;;;7.77;1.77;;;10.70;99.90;;;;;;5111953;28;20032;-64
2023/12/11 11:25:53;;;;;;;6.13;1.70;;;10.70;99.90;;;;;;5112223;28;20304;-64
2023/12/11 11:28:34;;;;;;;4.03;1.70;;;10.70;99.90;;;;;;5112029;28;20534;-64
2023/12/11 11:30:59;;;;;;;5.65;1.60;;;10.70;99.90;;;;;;5111712;28;20040;-65
2023/12/11 11:33:52;;;;;;;6.07;1.70;;;10.70;99.90;;;;;;5112065;28;20021;-64
2023/12/11 11:36:19;;;;;;;4.88;1.48;;;10.70;99.90;;;;;;5111612;28;20024;-66
2023/12/11 11:38:58;;;;;;;3.75;1.58;;;10.70;99.90;;;;;;5111797;28;20069;-65
2023/12/11 11:41:29;;;;;;;4.60;1.63;;;10.70;99.90;;;;;;5111804;28;20091;-64
2023/12/11 11:43:58;;;;;;;5.57;1.70;;;10.60;99.90;;;;;;5111877;28;20025;-66
2023/12/11 11:46:25;;;;;;;3.78;1.70;;;10.70;99.90;;;;;;5111774;28;20035;-65
2023/12/11 11:48:51;;;;;;;4.30;1.45;;;10.70;99.90;;;;;;5111769;28;20096;-65
2023/12/11 11:51:17;;;;;;;5.97;2.20;;;10.80;99.90;;;;;;5111883;28;20028;-65
2023/12/11 11:53:44;;;;;;;4.85;1.80;;;10.80;99.90;;;;;;5111908;28;20023;-63
2023/12/11 11:56:11;;;;;;;5.97;1.55;;;10.90;99.90;;;;;;5112039;28;20028;-64
2023/12/11 11:58:37;;;;;;;7.10;1.58;;;10.90;99.90;;;;;;5111682;28;20020;-65
2023/12/11 12:01:05;;;;;;;6.72;1.55;;;10.80;99.90;;;;;;5112402;28;20028;-64
2023/12/11 12:03:44;;;;;;;6.03;1.70;;;10.80;99.90;;;;;;5115677;28;20032;-63
2023/12/11 12:06:10;;;;;;;6.95;1.75;;;10.90;99.90;;;;;;5115541;28;20043;-64
2023/12/11 12:08:41;;;;;;;3.97;1.60;;;10.90;99.90;;;;;;5115499;28;20111;-64
2023/12/11 12:11:07;;;;;;;5.80;1.75;;;10.90;99.90;;;;;;5115344;28;20017;-64
2023/12/11 12:13:38;;;;;;;6.43;1.92;;;11.10;99.90;;;;;;5115314;28;20053;-65
2023/12/11 12:16:04;;;;;;;3.22;1.35;;;11.10;99.90;;;;;;5115446;28;20079;-65
2023/12/11 12:18:30;;;;;;;5.43;1.50;;;11.10;99.90;;;;;;5115215;28;20032;-66
2023/12/11 12:21:05;;;;;;;5.53;1.67;;;11.00;99.90;;;;;;5115443;28;20021;-64
2023/12/11 12:23:31;;;;;;;9.82;2.10;;;11.00;99.90;;;;;;5115468;28;20084;-64
2023/12/11 12:26:00;;;;;;;7.82;1.77;;;10.90;99.90;;;;;;5115188;28;20071;-65
2023/12/11 12:28:29;;;;;;;5.53;1.88;;;10.90;99.90;;;;;;5115458;28;20046;-64
2023/12/11 12:30:54;;;;;;;4.85;1.88;;;10.80;99.90;;;;;;5115185;28;20042;-64
2023/12/11 12:33:21;;;;;;;8.55;2.22;;;10.80;99.90;;;;;;5115236;28;20028;-63
2023/12/11 12:35:48;;;;;;;4.40;1.45;;;10.80;99.90;;;;;;5114913;28;20059;-64
2023/12/11 12:38:14;;;;;;;6.20;2.00;;;10.90;99.90;;;;;;5114873;28;20046;-64